»·PEaware :: N6515D KWJF-KSNA

N6515D :: KWJF-KSNA

FLIGHT INFORMATION

Flight Status: Arrived
Operator: Privately registered:
United States
More flights under this callsign
Pilot: Charles S. (11412)
Aircraft: Unknown
(DA62)
More flights by this aircraft type
Origin: KWJF Gen Fox
United States
Destination: KSNA John Wayne-Orange Co
United States
More flights between these airports :: More routes between these airports
Route: +PMD V201 BERRI V459 SLI
File this flight plan on PilotEdge
Remarks:
Altitude:
(Current/Filed)
9,000ft
Speed:
(Current/Filed)
170kts
Departed: 21-May-18 03:28 PM
Arrived: 21-May-18 04:12 PM
Distance/Time
Traveled:
67nm/0:44
Distance/Time
To Go:
Arrived

Flight Plot

Page will automatically refresh every two minutes.


Map Options




Map Legend


Flown Route
Filed Route
Departure Airport
Arrival Airport
Navaid (VOR, NDB)
Fix

Horizontal Profiles

Position Reports

Time Latitude Longitude Heading Altitude Ground
Speed
21-May-18 15:18 34.739602 -118.213554 250 2340ft 0kts
21-May-18 15:19 34.739602 -118.213554 250 2340ft 0kts
21-May-18 15:20 34.739602 -118.213554 250 2340ft 0kts
21-May-18 15:21 34.739602 -118.213554 250 2340ft 0kts
21-May-18 15:22 34.739602 -118.213554 250 2340ft 0kts
21-May-18 15:23 34.739602 -118.213554 250 2340ft 0kts
21-May-18 15:24 34.739602 -118.213554 250 2340ft 0kts
21-May-18 15:25 34.740293 -118.213296 49 2340ft 12kts
21-May-18 15:26 34.742518 -118.209573 71 2336ft 23kts
21-May-18 15:27 34.743760 -118.208420 253 2336ft 27kts
21-May-18 15:28 34.735286 -118.227797 171 2859ft 99kts
21-May-18 15:29 34.732434 -118.190012 138 3728ft 125kts
21-May-18 15:30 34.707795 -118.158794 141 4543ft 133kts
21-May-18 15:31 34.681873 -118.126353 141 5341ft 137kts
21-May-18 15:32 34.655139 -118.093076 140 6139ft 139kts
21-May-18 15:33 34.625145 -118.069732 200 6931ft 126kts
21-May-18 15:34 34.592973 -118.084739 205 7713ft 127kts
21-May-18 15:35 34.569139 -118.096966 205 8294ft 129kts
21-May-18 15:36 34.555225 -118.104247 206 8631ft 129kts
21-May-18 15:37 34.520879 -118.122392 205 9020ft 153kts
21-May-18 15:38 34.479549 -118.144262 205 9022ft 168kts
21-May-18 15:39 34.436554 -118.167039 204 9033ft 170kts
21-May-18 15:40 34.392791 -118.190180 204 8989ft 172kts
21-May-18 15:41 34.349113 -118.213271 203 9002ft 172kts
21-May-18 15:42 34.306502 -118.235765 203 9010ft 172kts
21-May-18 15:43 34.263734 -118.258205 204 9008ft 175kts
21-May-18 15:44 34.223411 -118.279510 205 9011ft 178kts
21-May-18 15:45 34.179736 -118.282288 157 9012ft 183kts
21-May-18 15:46 34.133545 -118.256274 155 9011ft 184kts
21-May-18 15:47 34.088017 -118.230025 155 9024ft 182kts
21-May-18 15:48 34.048011 -118.206951 155 9011ft 177kts
21-May-18 15:49 34.006835 -118.183222 156 9012ft 176kts
21-May-18 15:50 33.965242 -118.159243 156 9012ft 177kts
21-May-18 15:51 33.924170 -118.135589 156 9010ft 178kts
21-May-18 15:52 33.885570 -118.113385 156 9011ft 179kts
21-May-18 15:53 33.849405 -118.085008 106 8999ft 185kts
21-May-18 15:54 33.862082 -118.044139 61 8281ft 192kts
21-May-18 15:55 33.877455 -118.011025 61 7459ft 193kts
21-May-18 15:56 33.890811 -117.982358 61 6712ft 179kts
21-May-18 15:57 33.902870 -117.956628 61 5979ft 167kts
21-May-18 15:58 33.913570 -117.933887 61 5303ft 160kts
21-May-18 15:59 33.925223 -117.909217 60 5014ft 171kts
21-May-18 16:00 33.928763 -117.877488 118 4571ft 170kts
21-May-18 16:01 33.916212 -117.850618 121 3769ft 158kts
21-May-18 16:02 33.900459 -117.817101 121 2990ft 132kts
21-May-18 16:03 33.884252 -117.781082 121 2996ft 136kts
21-May-18 16:04 33.856831 -117.757926 176 2976ft 133kts
21-May-18 16:05 33.824675 -117.774155 208 2976ft 130kts
21-May-18 16:06 33.795437 -117.792725 208 2617ft 102kts
21-May-18 16:07 33.770881 -117.808370 207 2051ft 99kts
21-May-18 16:08 33.746634 -117.823780 207 1511ft 99kts
21-May-18 16:09 33.725108 -117.837452 206 1031ft 77kts
21-May-18 16:10 33.704886 -117.850301 206 602ft 85kts
21-May-18 16:11 33.684319 -117.863333 206 153ft 82kts
21-May-18 16:12 33.671839 -117.871243 209 60ft 22kts
21-May-18 16:13 33.669194 -117.871712 127 60ft 0kts
21-May-18 16:14 33.669073 -117.870921 48 60ft 9kts
21-May-18 16:15 33.671026 -117.867731 27 60ft 0kts

Navigation Log

Ident Type
1. KWJF Airport
2. PMD Navaid
3. SOLED Fix
4. BERRI Fix
5. DARTS Fix
6. DODGR Fix
7. SLI Navaid
8. KSNA Airport